Terminal Aerodrome Forecast
Issued by NWS

Home | Current Version | Previous Version | Text Only | Print | Product List | Glossary On
Versions: 1 2 3 4 5 6 7 8 9 10 11 12
000
FTUS46 KSTO 222300
TAFSAC
TAF
KSAC 222320Z 2300/2324 20012KT P6SM SKC
     FM230600 17005KT P6SM SKC
     FM232000 24007KT P6SM SKC=

USA.gov is the U.S. government's official web portal to all federal, state and local government web resources and services.